Time;durP1;ratioP1;P1;durP2;ratioP2;P2;SDS_P1;SDS_P2;PMS_P1;PMS_P2;Temp;Humidity;BMP_temperature;BMP_pressure;BME280_temperature;BME280_humidity;BME280_pressure;Samples;Min_cycle;Max_cycle;Signal;HPM_P1;HPM_P2
2022/02/16 00:02:17;;;;;;;3.75;1.52;;;;;;;;;;5065777;28;20020;-80
2022/02/16 00:04:43;;;;;;;3.00;1.42;;;;;;;;;;5088876;28;20025;-81
2022/02/16 00:07:08;;;;;;;5.22;1.40;;;;;;;;;;5094111;28;20023;-80
2022/02/16 00:09:33;;;;;;;2.95;1.55;;;;;;;;;;5083994;28;20032;-80
2022/02/16 00:12:01;;;;;;;5.30;1.60;;;;;;;;;;5095461;28;20012;-80
2022/02/16 00:14:26;;;;;;;4.43;1.77;;;;;;;;;;5086799;28;20019;-81
2022/02/16 00:16:51;;;;;;;3.67;1.45;;;;;;;;;;5095881;28;20471;-81
2022/02/16 00:19:16;;;;;;;3.60;1.40;;;;;;;;;;5083988;28;20013;-80
2022/02/16 00:21:41;;;;;;;4.22;1.73;;;;;;;;;;5092907;28;20467;-80
2022/02/16 00:24:07;;;;;;;3.85;1.63;;;;;;;;;;5060862;28;20012;-80
2022/02/16 00:26:32;;;;;;;7.38;1.77;;;;;;;;;;5087965;28;20023;-80
2022/02/16 00:28:59;;;;;;;3.10;1.60;;;;;;;;;;5091135;28;20024;-81
2022/02/16 00:31:25;;;;;;;6.03;1.77;;;;;;;;;;5085706;28;20103;-81
2022/02/16 00:33:50;;;;;;;3.97;1.58;;;;;;;;;;5098376;28;20036;-81
2022/02/16 00:36:15;;;;;;;6.10;2.13;;;;;;;;;;5087976;28;20012;-80
2022/02/16 00:38:40;;;;;;;7.38;1.45;;;;;;;;;;5091076;28;20008;-80
2022/02/16 00:41:05;;;;;;;3.80;1.65;;;;;;;;;;5093663;28;20039;-81
2022/02/16 00:43:31;;;;;;;4.55;1.40;;;;;;;;;;5084910;28;20035;-81
2022/02/16 00:45:56;;;;;;;3.42;1.50;;;;;;;;;;5100972;28;20023;-81
2022/02/16 00:48:21;;;;;;;3.05;1.40;;;;;;;;;;5094919;28;20023;-81
2022/02/16 00:50:46;;;;;;;2.95;1.52;;;;;;;;;;5090689;28;20032;-81
2022/02/16 00:53:11;;;;;;;3.28;1.60;;;;;;;;;;5079658;28;20038;-78
2022/02/16 00:55:37;;;;;;;4.25;1.73;;;;;;;;;;5094017;28;20066;-81
2022/02/16 00:58:05;;;;;;;5.78;1.73;;;;;;;;;;5098004;28;20016;-80
2022/02/16 01:00:30;;;;;;;3.75;1.38;;;;;;;;;;5065715;28;20035;-81
2022/02/16 01:02:55;;;;;;;3.60;1.50;;;;;;;;;;5094853;28;20028;-81
2022/02/16 01:05:20;;;;;;;4.32;1.95;;;;;;;;;;5069951;28;20587;-81
2022/02/16 01:07:46;;;;;;;5.93;1.33;;;;;;;;;;5103002;28;20017;-81
2022/02/16 01:10:11;;;;;;;3.63;1.80;;;;;;;;;;5097549;28;20095;-79
2022/02/16 01:12:36;;;;;;;6.80;1.80;;;;;;;;;;5081944;28;20093;-79
2022/02/16 01:15:05;;;;;;;9.65;1.75;;;;;;;;;;5080597;28;20021;-79
2022/02/16 01:17:30;;;;;;;3.22;1.55;;;;;;;;;;5070918;28;20028;-78
2022/02/16 01:19:55;;;;;;;5.40;1.83;;;;;;;;;;5058118;28;20020;-79
2022/02/16 01:22:21;;;;;;;4.78;1.90;;;;;;;;;;5086130;28;20070;-78
2022/02/16 01:24:46;;;;;;;6.45;1.80;;;;;;;;;;5064865;28;20020;-79
2022/02/16 01:27:11;;;;;;;3.05;1.50;;;;;;;;;;5079847;28;20020;-78
2022/02/16 01:29:36;;;;;;;6.10;2.25;;;;;;;;;;5089947;28;20465;-79
2022/02/16 01:32:02;;;;;;;4.38;1.90;;;;;;;;;;5077060;28;20490;-78
2022/02/16 01:34:27;;;;;;;5.03;1.85;;;;;;;;;;5085835;28;20025;-79
2022/02/16 01:36:52;;;;;;;3.38;1.55;;;;;;;;;;5083904;28;20019;-79
2022/02/16 01:39:17;;;;;;;6.32;2.20;;;;;;;;;;5079486;28;20028;-78
2022/02/16 01:41:43;;;;;;;4.47;1.42;;;;;;;;;;5074771;28;20519;-79
2022/02/16 01:44:08;;;;;;;4.03;1.77;;;;;;;;;;5070724;28;20749;-79
2022/02/16 01:46:51;;;;;;;8.93;1.92;;;;;;;;;;5082266;28;20016;-81
2022/02/16 01:49:17;;;;;;;4.13;1.70;;;;;;;;;;5082764;28;20013;-80
2022/02/16 01:51:42;;;;;;;7.43;1.63;;;;;;;;;;5094683;28;20031;-81
2022/02/16 01:54:09;;;;;;;5.13;1.73;;;;;;;;;;5080089;28;20028;-80
2022/02/16 01:56:34;;;;;;;4.07;1.55;;;;;;;;;;5072086;28;20039;-80
2022/02/16 01:59:00;;;;;;;8.55;1.73;;;;;;;;;;5090504;28;20024;-81
2022/02/16 02:01:25;;;;;;;5.80;2.00;;;;;;;;;;5083793;28;20020;-80
2022/02/16 02:03:50;;;;;;;5.22;1.80;;;;;;;;;;5099833;28;20019;-81
2022/02/16 02:06:15;;;;;;;3.67;1.58;;;;;;;;;;5071677;28;20107;-80
2022/02/16 02:08:41;;;;;;;4.30;2.40;;;;;;;;;;5092789;28;20097;-80
2022/02/16 02:11:07;;;;;;;4.65;1.77;;;;;;;;;;5092375;28;20095;-80
2022/02/16 02:13:32;;;;;;;6.18;1.67;;;;;;;;;;5081236;28;20024;-78
2022/02/16 02:15:57;;;;;;;6.05;1.83;;;;;;;;;;5104749;28;20072;-82
2022/02/16 02:18:22;;;;;;;3.03;1.42;;;;;;;;;;5101276;28;20016;-81
2022/02/16 02:20:47;;;;;;;3.67;1.50;;;;;;;;;;5113976;28;20020;-82
2022/02/16 02:23:13;;;;;;;4.50;1.73;;;;;;;;;;5100776;28;20031;-81
2022/02/16 02:25:45;;;;;;;5.40;1.85;;;;;;;;;;5096052;28;20020;-82
2022/02/16 02:28:11;;;;;;;3.28;1.88;;;;;;;;;;5112342;28;20111;-82
2022/02/16 02:30:36;;;;;;;6.40;1.70;;;;;;;;;;5087913;28;20020;-82
2022/02/16 02:33:01;;;;;;;9.30;2.03;;;;;;;;;;5088457;28;20043;-81
2022/02/16 02:35:27;;;;;;;4.53;1.83;;;;;;;;;;5079509;28;20012;-82
2022/02/16 02:37:52;;;;;;;4.65;2.00;;;;;;;;;;5079316;28;20043;-82
2022/02/16 02:40:17;;;;;;;5.00;2.08;;;;;;;;;;5094175;28;20016;-80
2022/02/16 02:42:42;;;;;;;3.92;1.75;;;;;;;;;;5115397;28;20024;-82
2022/02/16 02:45:09;;;;;;;4.78;1.50;;;;;;;;;;5117673;28;20075;-82
2022/02/16 02:47:34;;;;;;;3.47;1.60;;;;;;;;;;5098802;28;20091;-82
2022/02/16 02:49:59;;;;;;;2.60;1.27;;;;;;;;;;5098796;28;20016;-82
2022/02/16 02:52:25;;;;;;;2.72;1.17;;;;;;;;;;5092196;28;20021;-81
2022/02/16 02:54:50;;;;;;;4.88;1.52;;;;;;;;;;5096956;28;20012;-82
2022/02/16 02:57:15;;;;;;;6.90;1.58;;;;;;;;;;5099505;28;20070;-82
2022/02/16 02:59:41;;;;;;;2.75;1.20;;;;;;;;;;5096806;28;20024;-78
2022/02/16 03:02:06;;;;;;;3.50;1.40;;;;;;;;;;5093564;28;20081;-81
2022/02/16 03:04:31;;;;;;;3.10;1.30;;;;;;;;;;5072304;28;20459;-81
2022/02/16 03:06:56;;;;;;;5.68;1.45;;;;;;;;;;5089886;28;20088;-82
2022/02/16 03:09:21;;;;;;;2.80;1.30;;;;;;;;;;5096138;28;20172;-81
2022/02/16 03:11:47;;;;;;;3.80;1.38;;;;;;;;;;5094115;28;20032;-81
2022/02/16 03:14:12;;;;;;;3.17;1.30;;;;;;;;;;5082523;28;20020;-83
2022/02/16 03:16:37;;;;;;;4.53;1.63;;;;;;;;;;5100970;28;20009;-83
2022/02/16 03:19:02;;;;;;;2.65;1.33;;;;;;;;;;5100494;28;20516;-82
2022/02/16 03:21:28;;;;;;;3.88;1.42;;;;;;;;;;5118280;28;20065;-82
2022/02/16 03:23:53;;;;;;;3.70;1.50;;;;;;;;;;5116095;28;20017;-82
2022/02/16 03:26:18;;;;;;;2.25;1.10;;;;;;;;;;5104539;28;20471;-81
2022/02/16 03:28:43;;;;;;;2.13;1.30;;;;;;;;;;5092011;28;20016;-82
2022/02/16 03:31:09;;;;;;;6.90;1.48;;;;;;;;;;5099847;28;20060;-82
2022/02/16 03:33:34;;;;;;;2.40;1.13;;;;;;;;;;5108100;28;20448;-81
2022/02/16 03:35:59;;;;;;;3.70;1.27;;;;;;;;;;5107301;28;20065;-82
2022/02/16 03:38:24;;;;;;;6.47;1.38;;;;;;;;;;5080428;28;20023;-80
2022/02/16 03:40:51;;;;;;;2.95;1.02;;;;;;;;;;5090640;28;20027;-80
2022/02/16 03:43:16;;;;;;;3.60;1.10;;;;;;;;;;5107572;28;20083;-82
2022/02/16 03:45:41;;;;;;;2.80;1.23;;;;;;;;;;5083147;28;20050;-82
2022/02/16 03:48:06;;;;;;;3.58;1.35;;;;;;;;;;5095773;28;20023;-82
2022/02/16 03:50:32;;;;;;;3.80;1.50;;;;;;;;;;5102446;28;20016;-81
2022/02/16 03:52:57;;;;;;;3.72;1.73;;;;;;;;;;5099131;28;20063;-82
2022/02/16 04:03:08;;;;;;;3.38;0.98;;;;;;;;;;5109874;22;20034;-83
2022/02/16 04:05:34;;;;;;;6.63;1.23;;;;;;;;;;5038344;28;20017;-83
2022/02/16 04:08:02;;;;;;;4.28;1.05;;;;;;;;;;5038695;28;20010;-83
2022/02/16 04:10:30;;;;;;;2.63;0.90;;;;;;;;;;5039139;28;20081;-84
2022/02/16 04:13:01;;;;;;;3.08;1.13;;;;;;;;;;5039304;28;20033;-83
2022/02/16 04:15:28;;;;;;;2.38;1.00;;;;;;;;;;5276544;22;20104;-83
2022/02/16 04:18:11;;;;;;;2.40;1.10;;;;;;;;;;5056617;28;20028;-82
2022/02/16 04:20:39;;;;;;;1.92;0.82;;;;;;;;;;5056794;28;20025;-82
2022/02/16 04:23:09;;;;;;;4.38;1.10;;;;;;;;;;5057049;28;20025;-84
2022/02/16 04:25:38;;;;;;;2.38;0.95;;;;;;;;;;5056410;28;20028;-83
2022/02/16 04:28:04;;;;;;;5.50;1.10;;;;;;;;;;5057133;28;20029;-83
2022/02/16 04:30:33;;;;;;;3.10;0.80;;;;;;;;;;5221138;22;20042;-83
2022/02/16 04:32:58;;;;;;;6.35;1.20;;;;;;;;;;5056693;28;20012;-83
2022/02/16 04:35:24;;;;;;;3.15;0.80;;;;;;;;;;5056165;28;20041;-82
2022/02/16 04:38:01;;;;;;;2.08;0.80;;;;;;;;;;5088853;28;20028;-82
2022/02/16 04:40:30;;;;;;;2.07;0.90;;;;;;;;;;5087780;28;20028;-82
2022/02/16 04:42:56;;;;;;;1.85;0.80;;;;;;;;;;5051926;28;20021;-83
2022/02/16 04:45:23;;;;;;;2.50;0.88;;;;;;;;;;5052772;28;20029;-82
2022/02/16 04:47:49;;;;;;;1.90;0.80;;;;;;;;;;5045987;28;20096;-81
2022/02/16 04:50:14;;;;;;;1.77;0.80;;;;;;;;;;5040679;28;20550;-80
2022/02/16 04:52:40;;;;;;;2.83;0.63;;;;;;;;;;5040558;28;20021;-81
2022/02/16 04:55:06;;;;;;;9.15;1.13;;;;;;;;;;5036630;28;20014;-80
2022/02/16 04:57:31;;;;;;;2.03;0.95;;;;;;;;;;5050224;22;20076;-76
2022/02/16 04:59:58;;;;;;;1.55;0.60;;;;;;;;;;5032600;28;20469;-76
2022/02/16 05:02:24;;;;;;;2.38;0.88;;;;;;;;;;5032240;28;20116;-76
2022/02/16 05:04:50;;;;;;;4.45;1.58;;;;;;;;;;5030567;28;20473;-76
2022/02/16 05:07:15;;;;;;;1.55;0.70;;;;;;;;;;5031713;28;20021;-76
2022/02/16 05:09:40;;;;;;;1.50;0.63;;;;;;;;;;5031627;28;20029;-76
2022/02/16 05:12:05;;;;;;;2.60;0.73;;;;;;;;;;5031316;28;20040;-77
2022/02/16 05:14:31;;;;;;;1.70;0.82;;;;;;;;;;5031674;28;20017;-76
2022/02/16 05:16:56;;;;;;;2.75;0.70;;;;;;;;;;5031591;28;20473;-76
2022/02/16 05:19:21;;;;;;;1.10;0.50;;;;;;;;;;5030967;28;20029;-75
2022/02/16 05:21:46;;;;;;;1.55;0.80;;;;;;;;;;5031688;28;20013;-77
2022/02/16 05:24:12;;;;;;;1.27;0.60;;;;;;;;;;5031353;28;20499;-76
2022/02/16 05:26:38;;;;;;;1.70;0.63;;;;;;;;;;5035514;28;20020;-76
2022/02/16 05:29:03;;;;;;;1.42;0.60;;;;;;;;;;5036083;28;20018;-76
2022/02/16 05:31:28;;;;;;;1.17;0.65;;;;;;;;;;5035622;28;20443;-77
2022/02/16 05:33:53;;;;;;;1.17;0.52;;;;;;;;;;5035168;28;20013;-76
2022/02/16 05:36:18;;;;;;;2.08;1.00;;;;;;;;;;5035772;28;20021;-76
2022/02/16 05:38:45;;;;;;;1.90;0.63;;;;;;;;;;5035176;28;20063;-76
2022/02/16 05:41:10;;;;;;;0.65;0.40;;;;;;;;;;5035517;28;20084;-76
2022/02/16 05:43:35;;;;;;;1.02;0.60;;;;;;;;;;5034929;28;20033;-76
2022/02/16 05:46:00;;;;;;;1.25;0.50;;;;;;;;;;5035570;28;20048;-76
2022/02/16 05:48:26;;;;;;;1.48;0.40;;;;;;;;;;5035526;28;20032;-76
2022/02/16 05:50:51;;;;;;;1.98;0.68;;;;;;;;;;5035931;28;20083;-76
2022/02/16 05:53:16;;;;;;;2.20;0.70;;;;;;;;;;5035034;28;20104;-76
2022/02/16 05:55:41;;;;;;;1.38;0.60;;;;;;;;;;5035471;28;20017;-76
2022/02/16 05:58:07;;;;;;;1.58;0.50;;;;;;;;;;5035979;28;20400;-77
2022/02/16 06:00:32;;;;;;;0.93;0.43;;;;;;;;;;5035703;28;20457;-76
2022/02/16 06:02:57;;;;;;;0.98;0.50;;;;;;;;;;5033696;28;20029;-75
2022/02/16 06:05:22;;;;;;;3.15;0.70;;;;;;;;;;5034872;28;20069;-75
2022/02/16 06:07:47;;;;;;;1.38;0.68;;;;;;;;;;5020265;28;20543;-76
2022/02/16 06:10:13;;;;;;;1.33;0.40;;;;;;;;;;5034261;28;20105;-76
2022/02/16 06:12:39;;;;;;;4.22;0.55;;;;;;;;;;5034891;28;20045;-76
2022/02/16 06:15:05;;;;;;;1.80;0.70;;;;;;;;;;5034071;28;20017;-75
2022/02/16 06:17:30;;;;;;;1.02;0.60;;;;;;;;;;5035565;28;20076;-75
2022/02/16 06:19:55;;;;;;;5.93;0.90;;;;;;;;;;5036018;28;20388;-76
2022/02/16 06:22:20;;;;;;;4.05;0.60;;;;;;;;;;5035712;28;20064;-75
2022/02/16 06:24:45;;;;;;;3.00;0.75;;;;;;;;;;5035455;28;20391;-76
2022/02/16 06:27:10;;;;;;;2.72;1.00;;;;;;;;;;5034823;28;20384;-75
2022/02/16 06:29:36;;;;;;;4.18;1.02;;;;;;;;;;5035087;28;20387;-75
2022/02/16 06:32:01;;;;;;;1.98;0.70;;;;;;;;;;5034528;28;20024;-76
2022/02/16 06:34:26;;;;;;;1.25;0.77;;;;;;;;;;5033719;28;20021;-75
2022/02/16 06:36:51;;;;;;;3.13;1.08;;;;;;;;;;5034205;28;20096;-75
2022/02/16 06:39:16;;;;;;;3.60;0.77;;;;;;;;;;5034971;28;20017;-75
2022/02/16 06:41:42;;;;;;;1.65;0.80;;;;;;;;;;5034490;28;20483;-76
2022/02/16 06:44:07;;;;;;;1.17;0.63;;;;;;;;;;5034716;28;20013;-75
2022/02/16 06:46:32;;;;;;;1.48;0.60;;;;;;;;;;5034567;28;20084;-74
2022/02/16 06:48:57;;;;;;;2.50;0.85;;;;;;;;;;5035038;28;20096;-75
2022/02/16 06:51:23;;;;;;;1.88;0.65;;;;;;;;;;5035101;28;20480;-75
2022/02/16 06:53:55;;;;;;;2.53;0.55;;;;;;;;;;5034293;28;20037;-75
2022/02/16 06:56:21;;;;;;;0.82;0.60;;;;;;;;;;5034716;28;20017;-74
2022/02/16 06:58:46;;;;;;;3.13;0.60;;;;;;;;;;5030024;28;20545;-75
2022/02/16 07:01:11;;;;;;;1.38;0.70;;;;;;;;;;5030940;28;20017;-74
2022/02/16 07:03:37;;;;;;;3.08;0.77;;;;;;;;;;5029519;28;20118;-74
2022/02/16 07:06:02;;;;;;;3.05;0.70;;;;;;;;;;5033446;28;20095;-76
2022/02/16 07:08:28;;;;;;;2.70;0.88;;;;;;;;;;5032265;28;20030;-74
2022/02/16 07:10:53;;;;;;;1.63;0.77;;;;;;;;;;5033904;28;20057;-75
2022/02/16 07:13:18;;;;;;;1.85;0.73;;;;;;;;;;5033323;28;20391;-74
2022/02/16 07:15:43;;;;;;;2.72;0.55;;;;;;;;;;5033652;28;20088;-74
2022/02/16 07:18:09;;;;;;;7.25;0.80;;;;;;;;;;5034023;28;20025;-75
2022/02/16 07:20:34;;;;;;;3.47;0.80;;;;;;;;;;5033177;28;20503;-74
2022/02/16 07:22:59;;;;;;;1.73;0.88;;;;;;;;;;5031802;28;20045;-74
2022/02/16 07:25:25;;;;;;;3.90;0.75;;;;;;;;;;5033280;28;20023;-74
2022/02/16 07:27:50;;;;;;;1.73;1.00;;;;;;;;;;5033623;28;20031;-75
2022/02/16 07:30:16;;;;;;;3.72;0.90;;;;;;;;;;5033219;28;20500;-74
2022/02/16 07:32:42;;;;;;;2.30;0.85;;;;;;;;;;5029019;28;20033;-74
2022/02/16 07:35:08;;;;;;;1.60;0.65;;;;;;;;;;5030670;28;20476;-74
2022/02/16 07:37:33;;;;;;;4.40;1.17;;;;;;;;;;5025361;28;20022;-74
2022/02/16 07:39:59;;;;;;;3.38;1.70;;;;;;;;;;5028314;28;20512;-74
2022/02/16 07:42:25;;;;;;;1.60;0.80;;;;;;;;;;5022017;28;20033;-74
2022/02/16 07:44:50;;;;;;;2.25;0.80;;;;;;;;;;5030792;28;20037;-74
2022/02/16 07:47:15;;;;;;;2.33;1.00;;;;;;;;;;5025301;28;20033;-74
2022/02/16 07:49:41;;;;;;;1.55;0.82;;;;;;;;;;5026456;28;20083;-74
2022/02/16 07:52:06;;;;;;;4.03;1.20;;;;;;;;;;5028015;28;20084;-74
2022/02/16 07:54:31;;;;;;;1.90;0.70;;;;;;;;;;5028953;28;20100;-74
2022/02/16 07:56:57;;;;;;;1.42;0.70;;;;;;;;;;5031090;28;20029;-75
2022/02/16 07:59:23;;;;;;;2.33;0.95;;;;;;;;;;5026255;28;20030;-74
2022/02/16 08:01:49;;;;;;;2.00;0.98;;;;;;;;;;5027772;28;20480;-74
2022/02/16 08:04:16;;;;;;;1.80;0.80;;;;;;;;;;5023339;28;20033;-74
2022/02/16 08:06:45;;;;;;;3.13;0.90;;;;;;;;;;5025111;28;20045;-74
2022/02/16 08:09:11;;;;;;;1.38;0.70;;;;;;;;;;5020325;28;20037;-74
2022/02/16 08:11:37;;;;;;;1.38;0.68;;;;;;;;;;5026699;28;20381;-74
2022/02/16 08:14:03;;;;;;;2.63;0.85;;;;;;;;;;5031269;28;20029;-75
2022/02/16 08:16:28;;;;;;;4.50;0.90;;;;;;;;;;5031278;28;20112;-75
2022/02/16 08:18:53;;;;;;;2.08;0.80;;;;;;;;;;5032574;28;20497;-74
2022/02/16 08:21:19;;;;;;;1.48;0.60;;;;;;;;;;5031582;28;20028;-74
2022/02/16 08:23:44;;;;;;;1.40;0.70;;;;;;;;;;5032212;28;20022;-74
2022/02/16 08:26:09;;;;;;;2.08;0.90;;;;;;;;;;5029318;28;20465;-75
2022/02/16 08:28:34;;;;;;;1.30;0.75;;;;;;;;;;5027930;28;20060;-74
2022/02/16 08:31:00;;;;;;;3.25;1.30;;;;;;;;;;5031889;28;20029;-75
2022/02/16 08:33:25;;;;;;;2.25;1.00;;;;;;;;;;5030425;28;20515;-74
2022/02/16 08:35:50;;;;;;;1.15;0.52;;;;;;;;;;5032202;28;20393;-74
2022/02/16 08:38:15;;;;;;;2.55;1.08;;;;;;;;;;5031879;28;20064;-75
2022/02/16 08:40:40;;;;;;;1.23;0.55;;;;;;;;;;5032344;28;20053;-75
2022/02/16 08:43:06;;;;;;;2.70;0.80;;;;;;;;;;5031495;28;20100;-75
2022/02/16 08:45:31;;;;;;;2.42;0.95;;;;;;;;;;5031766;28;20052;-75
2022/02/16 08:47:56;;;;;;;2.45;0.88;;;;;;;;;;5031899;28;20021;-75
2022/02/16 08:50:21;;;;;;;3.17;1.30;;;;;;;;;;5031901;28;20094;-74
2022/02/16 08:52:47;;;;;;;1.27;0.60;;;;;;;;;;5031426;28;20037;-75
2022/02/16 08:55:12;;;;;;;2.45;0.88;;;;;;;;;;5032072;28;20492;-75
2022/02/16 08:57:39;;;;;;;3.17;1.20;;;;;;;;;;5031642;28;20032;-74
2022/02/16 09:00:05;;;;;;;3.42;1.20;;;;;;;;;;5031845;28;20021;-74
2022/02/16 09:02:30;;;;;;;1.30;0.70;;;;;;;;;;5031589;28;20029;-74
2022/02/16 09:04:55;;;;;;;1.10;0.70;;;;;;;;;;5031590;28;20508;-75
2022/02/16 09:07:30;;;;;;;2.63;1.13;;;;;;;;;;5031401;28;20021;-74
2022/02/16 09:10:03;;;;;;;2.65;1.20;;;;;;;;;;5014765;28;20021;-74
2022/02/16 09:12:29;;;;;;;2.10;1.10;;;;;;;;;;5030329;28;20083;-74
2022/02/16 09:14:54;;;;;;;1.80;0.90;;;;;;;;;;5031690;28;20022;-75
2022/02/16 09:17:20;;;;;;;2.47;1.20;;;;;;;;;;5031759;28;20029;-74
2022/02/16 09:19:45;;;;;;;4.40;2.10;;;;;;;;;;5030221;28;20458;-74
2022/02/16 09:22:12;;;;;;;2.13;1.23;;;;;;;;;;5031778;28;20021;-75
2022/02/16 09:24:37;;;;;;;1.88;0.80;;;;;;;;;;5032147;28;20056;-75
2022/02/16 09:27:02;;;;;;;1.98;0.95;;;;;;;;;;5031787;28;20049;-74
2022/02/16 09:29:28;;;;;;;4.50;1.35;;;;;;;;;;5031634;28;20453;-75
2022/02/16 09:31:53;;;;;;;5.75;1.63;;;;;;;;;;5031147;28;20806;-75
2022/02/16 09:34:19;;;;;;;5.25;1.50;;;;;;;;;;5031475;28;20439;-74
2022/02/16 09:36:44;;;;;;;8.65;3.65;;;;;;;;;;5031443;28;20018;-75
2022/02/16 09:39:09;;;;;;;2.28;1.02;;;;;;;;;;5031584;28;20465;-75
2022/02/16 09:41:35;;;;;;;5.40;2.78;;;;;;;;;;5031121;28;20104;-75
2022/02/16 09:44:00;;;;;;;2.70;1.30;;;;;;;;;;5030146;28;20025;-75
2022/02/16 09:46:26;;;;;;;4.05;1.50;;;;;;;;;;5031404;28;20056;-75
2022/02/16 09:48:52;;;;;;;2.17;1.20;;;;;;;;;;5030964;28;20033;-75
2022/02/16 09:51:18;;;;;;;2.90;1.42;;;;;;;;;;5031506;28;20103;-75
2022/02/16 09:53:43;;;;;;;4.57;1.75;;;;;;;;;;5029391;28;20485;-75
2022/02/16 09:56:08;;;;;;;2.20;0.77;;;;;;;;;;5031270;28;20044;-75
2022/02/16 09:58:33;;;;;;;1.20;0.50;;;;;;;;;;5030923;28;20029;-75
2022/02/16 10:01:00;;;;;;;2.20;0.88;;;;;;;;;;5030134;28;20029;-75
2022/02/16 10:03:25;;;;;;;3.38;0.70;;;;;;;;;;5031255;28;20034;-75
2022/02/16 10:05:50;;;;;;;3.90;1.80;;;;;;;;;;5030400;28;20024;-75
2022/02/16 10:08:36;;;;;;;3.35;1.50;;;;;;;;;;5031336;28;20480;-75
2022/02/16 10:11:01;;;;;;;2.17;0.80;;;;;;;;;;5030204;28;20030;-75
2022/02/16 10:13:26;;;;;;;3.50;1.70;;;;;;;;;;5032668;28;20026;-75
2022/02/16 10:15:54;;;;;;;2.67;1.30;;;;;;;;;;5033519;28;20161;-75
2022/02/16 10:18:21;;;;;;;4.20;1.35;;;;;;;;;;5035092;28;20017;-75
2022/02/16 10:20:46;;;;;;;2.20;0.70;;;;;;;;;;5033438;28;20029;-75
2022/02/16 10:23:12;;;;;;;6.82;2.22;;;;;;;;;;5034239;28;20026;-75
2022/02/16 10:25:37;;;;;;;3.42;0.90;;;;;;;;;;5035040;28;20099;-75
2022/02/16 10:28:13;;;;;;;1.95;0.70;;;;;;;;;;5034877;28;20013;-75
2022/02/16 10:30:59;;;;;;;4.38;1.08;;;;;;;;;;5034786;28;20105;-75
2022/02/16 10:33:31;;;;;;;1.83;0.73;;;;;;;;;;5033656;28;20043;-75
2022/02/16 10:35:57;;;;;;;0.80;0.32;;;;;;;;;;5018798;28;20476;-75
2022/02/16 10:38:23;;;;;;;1.92;0.73;;;;;;;;;;5033097;28;20052;-75
2022/02/16 10:41:08;;;;;;;1.25;0.60;;;;;;;;;;5034507;28;20037;-75
2022/02/16 10:43:38;;;;;;;1.35;0.60;;;;;;;;;;5033413;28;20029;-75
2022/02/16 10:46:23;;;;;;;2.22;0.70;;;;;;;;;;5031430;28;20069;-75
2022/02/16 10:49:05;;;;;;;1.27;0.38;;;;;;;;;;5037513;28;20471;-75
2022/02/16 10:51:32;;;;;;;2.00;0.80;;;;;;;;;;5029988;28;20022;-75
2022/02/16 10:54:08;;;;;;;1.20;0.63;;;;;;;;;;5034148;28;20018;-75
2022/02/16 10:56:34;;;;;;;2.05;0.60;;;;;;;;;;5034756;28;20029;-74
2022/02/16 10:58:59;;;;;;;0.85;0.40;;;;;;;;;;5057456;22;20045;-78
2022/02/16 11:01:24;;;;;;;2.25;0.60;;;;;;;;;;5053448;28;20119;-77
2022/02/16 11:03:51;;;;;;;2.03;0.57;;;;;;;;;;5052343;28;20464;-76
2022/02/16 11:06:17;;;;;;;1.02;0.50;;;;;;;;;;5052958;28;20047;-78
2022/02/16 11:08:43;;;;;;;1.08;0.52;;;;;;;;;;5043229;28;20033;-76
2022/02/16 11:11:09;;;;;;;1.40;0.70;;;;;;;;;;5034069;28;20469;-77
2022/02/16 11:13:36;;;;;;;1.67;0.70;;;;;;;;;;5033188;28;20049;-78
2022/02/16 11:16:02;;;;;;;1.77;0.60;;;;;;;;;;5032400;28;20013;-77
2022/02/16 11:18:30;;;;;;;1.15;0.57;;;;;;;;;;5032084;28;20017;-78
2022/02/16 11:21:05;;;;;;;1.38;0.65;;;;;;;;;;5033492;28;20508;-78
2022/02/16 11:23:37;;;;;;;1.55;0.63;;;;;;;;;;5033032;28;20053;-76
2022/02/16 11:26:22;;;;;;;1.80;0.70;;;;;;;;;;5033796;28;20032;-77
2022/02/16 11:28:47;;;;;;;1.38;0.50;;;;;;;;;;5033659;28;20025;-78
2022/02/16 11:31:25;;;;;;;2.33;0.60;;;;;;;;;;5032366;28;20112;-77
2022/02/16 11:34:09;;;;;;;4.97;0.52;;;;;;;;;;5032934;28;20017;-77
2022/02/16 11:36:55;;;;;;;1.90;0.80;;;;;;;;;;5033420;28;20018;-77
2022/02/16 11:39:39;;;;;;;1.35;0.75;;;;;;;;;;5032745;28;20025;-77
2022/02/16 11:42:04;;;;;;;2.13;0.80;;;;;;;;;;5018365;28;20009;-78
2022/02/16 11:44:48;;;;;;;1.55;0.47;;;;;;;;;;5033086;28;20487;-78
2022/02/16 11:47:32;;;;;;;4.00;0.70;;;;;;;;;;5033750;28;20021;-77
2022/02/16 11:49:57;;;;;;;1.35;0.47;;;;;;;;;;5017580;28;20469;-78
2022/02/16 11:52:39;;;;;;;1.85;0.70;;;;;;;;;;5032270;28;20017;-78
2022/02/16 11:55:05;;;;;;;3.20;0.45;;;;;;;;;;5031789;28;20554;-78
2022/02/16 11:57:30;;;;;;;3.72;0.50;;;;;;;;;;5032693;28;20021;-78
2022/02/16 11:59:56;;;;;;;1.45;0.55;;;;;;;;;;5032607;28;20056;-78
2022/02/16 12:02:21;;;;;;;1.60;0.68;;;;;;;;;;5032346;28;20840;-77
2022/02/16 12:04:48;;;;;;;1.83;0.65;;;;;;;;;;5032075;28;20017;-76
2022/02/16 12:07:23;;;;;;;0.90;0.47;;;;;;;;;;5032738;28;20079;-77
2022/02/16 12:10:07;;;;;;;0.47;0.40;;;;;;;;;;5032378;28;20490;-76
2022/02/16 12:12:32;;;;;;;2.95;0.40;;;;;;;;;;5032449;28;20487;-77
2022/02/16 12:14:57;;;;;;;0.77;0.40;;;;;;;;;;5032594;28;20025;-78
2022/02/16 12:17:23;;;;;;;1.15;0.43;;;;;;;;;;5031764;28;20024;-77
2022/02/16 12:19:48;;;;;;;1.67;0.60;;;;;;;;;;5032864;28;20550;-77
2022/02/16 12:22:19;;;;;;;3.30;0.73;;;;;;;;;;5033012;28;20428;-77
2022/02/16 12:24:45;;;;;;;3.63;0.55;;;;;;;;;;5031325;28;20056;-78
2022/02/16 12:27:10;;;;;;;2.45;0.60;;;;;;;;;;5032602;28;20045;-78
2022/02/16 12:29:39;;;;;;;0.95;0.43;;;;;;;;;;5032647;28;20017;-77
2022/02/16 12:32:04;;;;;;;2.22;0.40;;;;;;;;;;5030658;28;20040;-76
2022/02/16 12:34:33;;;;;;;0.80;0.40;;;;;;;;;;5031703;28;20493;-77
2022/02/16 12:37:00;;;;;;;1.10;0.38;;;;;;;;;;5032291;28;20036;-76
2022/02/16 12:39:27;;;;;;;0.63;0.30;;;;;;;;;;5030954;28;20469;-77
2022/02/16 12:41:52;;;;;;;3.15;0.60;;;;;;;;;;5015482;28;20009;-76
2022/02/16 12:44:18;;;;;;;0.15;0.15;;;;;;;;;;5032009;28;20068;-77
2022/02/16 12:46:47;;;;;;;1.95;0.73;;;;;;;;;;5031872;28;20079;-78
2022/02/16 12:49:13;;;;;;;0.35;0.30;;;;;;;;;;5031866;28;20264;-78
2022/02/16 12:51:39;;;;;;;1.88;0.55;;;;;;;;;;5032020;28;20021;-77
2022/02/16 12:54:07;;;;;;;4.40;1.20;;;;;;;;;;5030916;28;20056;-77
2022/02/16 12:56:41;;;;;;;6.80;1.63;;;;;;;;;;5032826;28;20018;-78
2022/02/16 12:59:15;;;;;;;1.75;0.60;;;;;;;;;;5032105;28;20112;-78
2022/02/16 13:01:41;;;;;;;1.95;0.70;;;;;;;;;;5031755;28;20024;-78
2022/02/16 13:04:07;;;;;;;5.75;0.95;;;;;;;;;;5031758;28;20520;-79
2022/02/16 13:06:36;;;;;;;2.42;1.17;;;;;;;;;;5032075;28;20056;-77
2022/02/16 13:09:02;;;;;;;0.95;0.43;;;;;;;;;;5031044;28;20076;-78
2022/02/16 13:11:28;;;;;;;0.98;0.47;;;;;;;;;;5031742;28;20432;-78
2022/02/16 13:14:05;;;;;;;2.05;0.55;;;;;;;;;;5031547;28;20049;-77
2022/02/16 13:16:30;;;;;;;5.78;2.42;;;;;;;;;;5031963;28;20018;-78
2022/02/16 13:18:59;;;;;;;1.73;0.80;;;;;;;;;;5030858;28;20071;-77
2022/02/16 13:21:24;;;;;;;;;;;;;;;;;;5031119;28;20481;-78
2022/02/16 13:23:52;;;;;;;1.02;0.55;;;;;;;;;;5031597;28;19928;-78
2022/02/16 13:26:18;;;;;;;0.93;0.38;;;;;;;;;;5031642;28;20242;-78
2022/02/16 13:28:43;;;;;;;3.25;0.85;;;;;;;;;;5031715;28;20087;-78
2022/02/16 13:31:12;;;;;;;1.45;0.52;;;;;;;;;;5030533;28;20037;-78
2022/02/16 13:33:37;;;;;;;0.93;0.55;;;;;;;;;;5031643;28;20021;-79
2022/02/16 13:36:12;;;;;;;0.85;0.50;;;;;;;;;;5031548;28;20018;-79
2022/02/16 13:38:37;;;;;;;4.38;0.65;;;;;;;;;;5031395;28;20017;-79
2022/02/16 13:41:07;;;;;;;1.20;0.47;;;;;;;;;;5031974;28;20113;-79
2022/02/16 13:43:43;;;;;;;1.17;0.45;;;;;;;;;;5031555;28;20049;-77
2022/02/16 13:46:08;;;;;;;3.28;0.50;;;;;;;;;;5031782;28;20108;-79
2022/02/16 13:48:47;;;;;;;;;;;;;;;;;;;;;
2022/02/16 13:51:14;;;;;;;3.85;0.80;;;;;;;;;;5035443;28;20025;-79
2022/02/16 13:53:40;;;;;;;2.70;0.60;;;;;;;;;;5034844;28;20029;-77
2022/02/16 13:56:05;;;;;;;3.25;0.80;;;;;;;;;;5034318;28;20084;-77
2022/02/16 13:58:33;;;;;;;1.38;0.38;;;;;;;;;;5034066;28;20044;-78
2022/02/16 14:01:04;;;;;;;1.65;0.47;;;;;;;;;;5034420;28;20021;-76
2022/02/16 14:03:29;;;;;;;2.03;0.65;;;;;;;;;;5035019;28;20381;-79
2022/02/16 14:05:55;;;;;;;2.38;0.80;;;;;;;;;;5036094;28;20021;-78
2022/02/16 14:08:20;;;;;;;3.08;0.88;;;;;;;;;;5035389;28;20017;-76
2022/02/16 14:10:49;;;;;;;1.75;0.50;;;;;;;;;;5036324;28;20022;-77
2022/02/16 14:13:14;;;;;;;1.30;0.43;;;;;;;;;;5034565;28;20084;-77
2022/02/16 14:15:39;;;;;;;2.08;0.60;;;;;;;;;;5035660;28;20496;-77
2022/02/16 14:18:05;;;;;;;3.05;0.40;;;;;;;;;;5034414;28;20009;-78
2022/02/16 14:20:31;;;;;;;3.35;0.60;;;;;;;;;;5035278;28;20015;-79
2022/02/16 14:22:56;;;;;;;0.60;0.47;;;;;;;;;;5035481;28;20105;-77
2022/02/16 14:25:23;;;;;;;1.10;0.30;;;;;;;;;;5034753;28;20473;-77
2022/02/16 14:27:49;;;;;;;3.35;1.00;;;;;;;;;;5035852;28;20100;-77
2022/02/16 14:30:16;;;;;;;2.42;0.55;;;;;;;;;;5036630;28;20021;-78
2022/02/16 14:32:42;;;;;;;0.30;0.20;;;;;;;;;;5034418;28;20036;-77
2022/02/16 14:35:07;;;;;;;0.88;0.30;;;;;;;;;;5036538;28;20017;-78
2022/02/16 14:37:35;;;;;;;0.15;0.15;;;;;;;;;;5034493;28;20068;-78
2022/02/16 14:40:00;;;;;;;1.65;0.50;;;;;;;;;;5035386;28;20051;-77
2022/02/16 14:42:26;;;;;;;1.55;0.40;;;;;;;;;;5034168;28;20041;-77
2022/02/16 14:44:51;;;;;;;1.02;0.50;;;;;;;;;;5036004;28;20144;-78
2022/02/16 14:47:18;;;;;;;0.80;0.30;;;;;;;;;;5035792;28;20028;-77
2022/02/16 14:49:44;;;;;;;0.40;0.20;;;;;;;;;;5036504;28;20040;-76